Time;durP1;ratioP1;P1;durP2;ratioP2;P2;SDS_P1;SDS_P2;PMS_P1;PMS_P2;Temp;Humidity;BMP_temperature;BMP_pressure;BME280_temperature;BME280_humidity;BME280_pressure;Samples;Min_cycle;Max_cycle;Signal;HPM_P1;HPM_P2
2021/07/24 00:00:26;;;;;;;9.13;7.80;;;;;;;21.00;55.82;101009.88;689350;28;61447;-63
2021/07/24 00:00:48;;;;;;;9.88;7.93;;;;;;;21.00;55.65;101010.72;691675;28;22833;-63
2021/07/24 00:01:10;;;;;;;9.40;7.82;;;;;;;20.99;55.68;101006.31;689911;28;45282;-63
2021/07/24 00:01:31;;;;;;;9.75;7.97;;;;;;;20.97;55.82;101008.47;690602;28;40221;-63
2021/07/24 00:01:52;;;;;;;9.10;7.93;;;;;;;20.98;55.83;101009.28;691191;28;13800;-62
2021/07/24 00:02:14;;;;;;;8.60;7.80;;;;;;;20.97;55.70;101005.72;691284;28;21523;-63
2021/07/24 00:02:36;;;;;;;10.45;8.25;;;;;;;20.97;55.99;101015.84;691991;28;3678;-64
2021/07/24 00:02:57;;;;;;;10.80;8.35;;;;;;;20.96;55.94;101012.28;690874;28;23517;-62
2021/07/24 00:03:18;;;;;;;9.75;8.25;;;;;;;20.96;55.87;101004.03;691061;28;20513;-63
2021/07/24 00:03:39;;;;;;;9.98;8.23;;;;;;;20.96;55.87;101005.97;690490;28;21539;-64
2021/07/24 00:04:01;;;;;;;9.63;8.25;;;;;;;20.97;55.85;101010.34;689943;28;45279;-63
2021/07/24 00:04:22;;;;;;;8.95;8.05;;;;;;;20.96;55.83;101004.03;690110;28;38005;-64
2021/07/24 00:04:44;;;;;;;8.50;7.70;;;;;;;20.95;55.67;101010.59;692291;28;860;-64
2021/07/24 00:05:05;;;;;;;8.77;7.88;;;;;;;20.93;55.96;101000.94;691026;28;21521;-63
2021/07/24 00:05:27;;;;;;;8.88;7.97;;;;;;;20.93;55.91;101004.53;691637;28;989;-64
2021/07/24 00:05:50;;;;;;;9.40;8.05;;;;;;;20.94;55.88;101005.34;693865;28;1922;-63
2021/07/24 00:06:11;;;;;;;8.65;7.75;;;;;;;20.93;55.83;100998.19;692987;28;46310;-63
2021/07/24 00:06:32;;;;;;;8.95;7.65;;;;;;;20.93;55.88;101011.94;693710;28;22206;-64
2021/07/24 00:06:53;;;;;;;9.35;7.75;;;;;;;20.91;55.68;101003.06;693785;28;14692;-64
2021/07/24 00:07:14;;;;;;;9.98;8.10;;;;;;;20.93;55.91;101000.94;694247;28;5058;-64
2021/07/24 00:07:37;;;;;;;10.48;7.88;;;;;;;20.92;55.90;100996.53;693480;28;895;-64
2021/07/24 00:08:04;;;;;;;9.95;7.82;;;;;;;20.91;55.99;100994.84;689988;28;60945;-63
2021/07/24 00:08:25;;;;;;;9.18;8.00;;;;;;;20.90;55.92;100991.28;689671;28;63636;-63
2021/07/24 00:08:46;;;;;;;9.00;7.75;;;;;;;20.90;56.02;100995.94;691671;28;23428;-64
2021/07/24 00:09:09;;;;;;;8.75;7.85;;;;;;;20.90;56.07;100990.44;690962;28;22051;-63
2021/07/24 00:09:31;;;;;;;8.15;7.32;;;;;;;20.90;56.14;100993.19;690625;28;46406;-63
2021/07/24 00:09:52;;;;;;;9.32;7.75;;;;;;;20.89;56.08;100997.81;690222;28;46356;-63
2021/07/24 00:10:13;;;;;;;10.63;7.70;;;;;;;20.88;56.13;100999.75;688485;28;1826;-64
2021/07/24 00:10:34;;;;;;;11.37;8.50;;;;;;;20.88;56.05;100999.75;687682;28;42427;-64
2021/07/24 00:10:55;;;;;;;12.73;8.57;;;;;;;20.86;56.19;100998.31;687684;28;46372;-64
2021/07/24 00:11:16;;;;;;;8.75;7.93;;;;;;;20.86;56.03;100996.41;686924;28;46327;-63
2021/07/24 00:11:39;;;;;;;11.02;8.10;;;;;;;20.85;56.26;100992.00;688147;28;22408;-63
2021/07/24 00:12:00;;;;;;;10.98;7.95;;;;;;;20.86;56.14;100998.31;690190;28;35299;-63
2021/07/24 00:12:21;;;;;;;10.55;8.00;;;;;;;20.86;56.20;100995.56;690944;28;24662;-63
2021/07/24 00:12:42;;;;;;;8.82;7.97;;;;;;;20.86;56.22;100999.16;693909;28;22415;-63
2021/07/24 00:13:04;;;;;;;9.38;7.93;;;;;;;20.86;56.12;100998.31;690692;28;22398;-63
2021/07/24 00:13:25;;;;;;;9.75;7.97;;;;;;;20.86;56.08;100998.31;689610;28;44376;-63
2021/07/24 00:13:46;;;;;;;12.07;7.88;;;;;;;20.86;56.03;100996.41;690898;28;21289;-64
2021/07/24 00:14:07;;;;;;;11.00;8.32;;;;;;;20.86;56.07;100999.16;691108;28;22324;-63
2021/07/24 00:14:29;;;;;;;9.13;8.10;;;;;;;20.85;56.00;100997.47;690946;28;21525;-62
2021/07/24 00:14:52;;;;;;;9.33;7.90;;;;;;;20.86;55.96;100999.16;689072;28;14916;-62
2021/07/24 00:15:16;;;;;;;10.38;7.72;;;;;;;20.86;55.87;101001.06;690418;28;28714;-62
2021/07/24 00:15:37;;;;;;;9.10;7.85;;;;;;;20.85;56.02;100992.00;690755;28;15810;-63
2021/07/24 00:15:58;;;;;;;10.70;8.05;;;;;;;20.83;56.05;100993.28;691091;28;22484;-63
2021/07/24 00:16:20;;;;;;;11.05;8.20;;;;;;;20.85;56.03;100996.66;690597;28;44076;-64
2021/07/24 00:16:41;;;;;;;9.57;8.30;;;;;;;20.84;55.96;100993.06;688617;28;46720;-62
2021/07/24 00:17:02;;;;;;;9.23;8.30;;;;;;;20.83;56.21;100994.16;690933;28;23197;-63
2021/07/24 00:17:23;;;;;;;9.55;8.00;;;;;;;20.83;56.16;100999.63;690519;28;35520;-63
2021/07/24 00:17:45;;;;;;;10.38;7.78;;;;;;;20.82;56.14;100995.22;691344;28;17649;-63
2021/07/24 00:18:07;;;;;;;9.15;8.00;;;;;;;20.81;56.03;100993.53;691179;28;22535;-63
2021/07/24 00:18:28;;;;;;;8.63;7.72;;;;;;;20.81;56.17;100992.69;690480;28;45338;-63
2021/07/24 00:18:49;;;;;;;8.98;8.05;;;;;;;20.80;56.25;100996.50;692207;28;41128;-62
2021/07/24 00:19:10;;;;;;;9.02;8.13;;;;;;;20.80;56.34;101002.84;691388;28;23420;-63
2021/07/24 00:19:34;;;;;;;9.20;8.30;;;;;;;20.80;56.45;100991.88;692216;28;979;-62
2021/07/24 00:19:55;;;;;;;9.43;8.52;;;;;;;20.81;56.13;100995.44;689928;28;46597;-63
2021/07/24 00:20:17;;;;;;;8.85;7.95;;;;;;;20.81;56.43;100995.44;691346;28;16293;-63
2021/07/24 00:20:38;;;;;;;8.90;7.85;;;;;;;20.79;56.20;100997.59;692385;28;1100;-62
2021/07/24 00:21:00;;;;;;;10.15;8.38;;;;;;;20.79;56.27;101003.09;692114;28;1574;-63
2021/07/24 00:21:24;;;;;;;8.75;7.90;;;;;;;20.78;56.40;100996.75;690436;28;37291;-63
2021/07/24 00:21:46;;;;;;;10.77;8.20;;;;;;;20.79;56.32;101001.19;691494;28;23447;-63
2021/07/24 00:22:07;;;;;;;10.88;8.00;;;;;;;20.78;56.37;100994.00;690050;28;47467;-63
2021/07/24 00:22:30;;;;;;;9.57;8.57;;;;;;;20.78;56.35;100999.50;692146;28;1532;-63
2021/07/24 00:22:51;;;;;;;9.25;8.35;;;;;;;20.77;56.28;100995.09;690632;28;19635;-63
2021/07/24 00:23:13;;;;;;;9.02;8.10;;;;;;;20.78;56.32;100991.25;691209;28;13773;-63
2021/07/24 00:23:35;;;;;;;8.20;7.40;;;;;;;20.78;56.47;100994.00;689751;28;45220;-63
2021/07/24 00:23:56;;;;;;;9.15;7.95;;;;;;;20.78;56.39;100991.25;691072;28;36401;-63
2021/07/24 00:24:18;;;;;;;10.05;8.40;;;;;;;20.78;56.23;100996.75;691823;28;910;-63
2021/07/24 00:24:39;;;;;;;8.70;7.85;;;;;;;20.77;56.29;100994.25;690338;28;44125;-63
2021/07/24 00:25:00;;;;;;;9.40;8.30;;;;;;;20.77;56.07;100997.00;691014;28;23505;-63
2021/07/24 00:25:23;;;;;;;11.82;8.80;;;;;;;20.77;56.31;100991.50;691430;28;902;-63
2021/07/24 00:25:45;;;;;;;10.60;8.30;;;;;;;20.77;56.28;100992.34;691866;28;1055;-63
2021/07/24 00:26:06;;;;;;;10.15;7.82;;;;;;;20.76;56.36;100987.94;691094;28;22912;-63
2021/07/24 00:26:27;;;;;;;9.90;8.13;;;;;;;20.76;56.36;100985.19;691248;28;23499;-63
2021/07/24 00:26:49;;;;;;;11.25;8.77;;;;;;;20.77;56.45;100994.25;690989;28;39708;-63
2021/07/24 00:27:11;;;;;;;10.10;8.48;;;;;;;20.76;56.38;100996.16;691557;28;920;-62
2021/07/24 00:27:33;;;;;;;9.47;8.30;;;;;;;20.73;56.42;100988.41;690923;28;1059;-62
2021/07/24 00:27:55;;;;;;;9.32;8.07;;;;;;;20.72;56.36;100994.13;691166;28;1805;-62
2021/07/24 00:28:17;;;;;;;8.98;8.10;;;;;;;20.73;56.47;100990.31;692023;28;1532;-62
2021/07/24 00:28:39;;;;;;;8.63;7.75;;;;;;;20.73;56.44;100991.16;691182;28;21528;-62
2021/07/24 00:29:02;;;;;;;10.13;8.30;;;;;;;20.73;56.52;100985.66;690294;28;34976;-62
2021/07/24 00:29:24;;;;;;;9.40;8.40;;;;;;;20.72;56.45;100989.50;689240;28;71047;-62
2021/07/24 00:29:45;;;;;;;9.00;7.85;;;;;;;20.73;56.76;100990.31;690548;28;18411;-63
2021/07/24 00:30:08;;;;;;;9.55;8.07;;;;;;;20.72;56.53;100988.66;689378;28;2557;-63
2021/07/24 00:30:45;;;;;;;9.32;8.40;;;;;;;20.74;56.54;100992.00;687177;28;60972;-63
2021/07/24 00:31:18;;;;;;;10.15;7.78;;;;;;;20.72;56.53;100984.00;683598;28;124402;-63
2021/07/24 00:31:46;;;;;;;10.57;8.30;;;;;;;20.70;56.50;100978.75;686854;28;61202;-63
2021/07/24 00:32:09;;;;;;;9.00;8.10;;;;;;;20.72;56.64;100989.50;687603;28;23608;-63
2021/07/24 00:32:33;;;;;;;10.38;7.97;;;;;;;20.71;56.37;100990.56;684113;28;138883;-62
2021/07/24 00:32:54;;;;;;;10.45;8.23;;;;;;;20.70;56.46;100980.66;689039;28;985;-62
2021/07/24 00:33:15;;;;;;;10.63;8.15;;;;;;;20.71;56.54;100990.56;688451;28;4022;-63
2021/07/24 00:33:38;;;;;;;9.75;8.00;;;;;;;20.72;56.53;100989.50;689647;28;877;-63
2021/07/24 00:34:02;;;;;;;8.93;8.02;;;;;;;20.70;56.54;100992.47;691421;28;1481;-62
2021/07/24 00:34:24;;;;;;;10.30;7.95;;;;;;;20.69;56.73;100982.56;691710;28;1522;-63
2021/07/24 00:34:46;;;;;;;10.27;8.20;;;;;;;20.69;56.66;100989.97;692379;28;1056;-62
2021/07/24 00:35:08;;;;;;;9.13;8.23;;;;;;;20.68;56.60;100991.88;692078;28;11186;-63
2021/07/24 00:35:30;;;;;;;9.15;8.10;;;;;;;20.69;56.45;100992.72;690369;28;45482;-63
2021/07/24 00:35:51;;;;;;;8.63;7.78;;;;;;;20.68;56.51;100985.56;690313;28;34798;-62
2021/07/24 00:36:12;;;;;;;9.20;8.25;;;;;;;20.69;56.49;100998.22;691811;28;2778;-63
2021/07/24 00:36:33;;;;;;;8.88;7.97;;;;;;;20.68;56.34;100983.63;691874;28;6648;-63
2021/07/24 00:36:57;;;;;;;9.38;8.15;;;;;;;20.67;56.54;100995.69;691153;28;20975;-63
2021/07/24 00:37:20;;;;;;;9.68;8.13;;;;;;;20.66;56.59;100990.47;688231;28;92251;-62
2021/07/24 00:37:42;;;;;;;10.23;8.30;;;;;;;20.66;56.52;100990.47;688120;28;92171;-63
2021/07/24 00:38:03;;;;;;;9.38;8.40;;;;;;;20.63;56.46;100988.97;690908;28;21308;-63
2021/07/24 00:38:26;;;;;;;8.95;8.05;;;;;;;20.62;56.73;100987.28;690973;28;23244;-63
2021/07/24 00:38:47;;;;;;;9.23;8.27;;;;;;;20.62;56.72;100992.78;689472;28;69475;-63
2021/07/24 00:39:08;;;;;;;10.15;8.73;;;;;;;20.58;56.65;100986.13;694385;28;909;-63
2021/07/24 00:39:31;;;;;;;8.65;7.82;;;;;;;20.59;56.79;100989.69;693138;28;16280;-63
2021/07/24 00:39:52;;;;;;;9.07;7.95;;;;;;;20.57;56.73;100984.44;688971;28;68101;-62
2021/07/24 00:40:16;;;;;;;9.98;8.50;;;;;;;20.57;56.95;100991.84;690583;28;45265;-63
2021/07/24 00:40:41;;;;;;;10.23;8.07;;;;;;;20.56;56.88;100987.41;689681;28;53198;-63
2021/07/24 00:41:04;;;;;;;9.48;8.43;;;;;;;20.53;56.86;100986.84;688001;28;107171;-62
2021/07/24 00:41:30;;;;;;;9.95;8.55;;;;;;;20.53;56.93;100988.72;688822;28;67453;-63
2021/07/24 00:41:55;;;;;;;9.85;8.25;;;;;;;20.51;57.02;100988.97;689455;28;136422;-63
2021/07/24 00:42:18;;;;;;;10.18;8.10;;;;;;;20.51;57.02;100986.22;691793;28;92348;-62
2021/07/24 00:42:42;;;;;;;9.20;8.25;;;;;;;20.51;57.04;100985.38;690952;28;92590;-63
2021/07/24 00:43:04;;;;;;;9.18;7.78;;;;;;;20.50;57.20;100981.81;691105;28;90196;-63
2021/07/24 00:43:28;;;;;;;9.98;7.95;;;;;;;20.50;57.07;100987.31;688392;28;69520;-63
2021/07/24 00:43:51;;;;;;;10.18;8.13;;;;;;;20.50;57.18;100987.31;689190;28;46422;-63
2021/07/24 00:44:15;;;;;;;9.27;8.20;;;;;;;20.50;57.12;100979.06;690038;28;58951;-63
2021/07/24 00:44:36;;;;;;;10.15;8.13;;;;;;;20.50;56.94;100983.72;688681;28;91866;-64
2021/07/24 00:45:00;;;;;;;9.02;8.13;;;;;;;20.51;57.11;100985.38;688571;28;46439;-64
2021/07/24 00:45:22;;;;;;;11.48;8.00;;;;;;;20.49;56.95;100982.88;687801;28;92739;-63
2021/07/24 00:45:46;;;;;;;11.05;8.27;;;;;;;20.49;57.09;100985.63;690264;28;44379;-63
2021/07/24 00:46:07;;;;;;;10.07;8.50;;;;;;;20.49;57.15;100984.81;686657;28;68645;-63
2021/07/24 00:46:30;;;;;;;9.77;8.30;;;;;;;20.50;57.12;100980.97;687055;28;46433;-63
2021/07/24 00:46:54;;;;;;;9.25;8.35;;;;;;;20.48;57.14;100986.69;687517;28;69522;-63
2021/07/24 00:47:17;;;;;;;9.23;7.90;;;;;;;20.47;57.26;100981.44;689316;28;67595;-63
2021/07/24 00:47:39;;;;;;;8.95;7.97;;;;;;;20.48;57.30;100977.63;688520;28;70690;-64
2021/07/24 00:48:22;;;;;;;9.88;8.30;;;;;;;20.48;57.18;100978.47;688959;28;137704;-62
2021/07/24 00:49:21;;;;;;;9.95;8.30;;;;;;;20.50;57.15;100979.06;683112;28;114225;-62
2021/07/24 00:49:48;;;;;;;8.90;8.00;;;;;;;20.50;56.99;100981.81;682089;28;148930;-63
2021/07/24 00:50:13;;;;;;;9.43;8.52;;;;;;;20.50;57.08;100979.06;686076;28;44392;-63
2021/07/24 00:50:34;;;;;;;9.23;8.27;;;;;;;20.50;56.88;100972.72;683305;28;115341;-63
2021/07/24 00:50:57;;;;;;;10.40;8.35;;;;;;;20.50;57.02;100975.47;685857;28;12502;-64
2021/07/24 00:51:26;;;;;;;11.13;8.32;;;;;;;20.49;57.04;100984.81;682687;28;69933;-63
2021/07/24 00:51:49;;;;;;;9.07;7.90;;;;;;;20.50;57.17;100975.47;681693;28;136269;-63
2021/07/24 00:52:10;;;;;;;9.00;8.10;;;;;;;20.49;56.83;100980.13;687633;28;70264;-63
2021/07/24 00:52:31;;;;;;;9.20;8.15;;;;;;;20.50;57.18;100978.22;692842;28;22393;-63
2021/07/24 00:52:59;;;;;;;10.65;8.40;;;;;;;20.50;57.18;100981.81;692451;28;21006;-63
2021/07/24 00:53:22;;;;;;;11.20;8.90;;;;;;;20.50;56.99;100975.47;685986;28;137828;-63
2021/07/24 00:53:46;;;;;;;10.55;8.13;;;;;;;20.50;57.01;100978.22;688352;28;93075;-63
2021/07/24 00:54:07;;;;;;;12.15;8.27;;;;;;;20.50;56.95;100978.22;689928;28;45357;-63
2021/07/24 00:54:29;;;;;;;10.85;8.23;;;;;;;20.49;57.10;100974.66;689975;28;46384;-63
2021/07/24 00:54:52;;;;;;;10.20;8.65;;;;;;;20.48;57.06;100972.97;689942;28;46483;-63
2021/07/24 00:55:14;;;;;;;11.00;8.82;;;;;;;20.50;57.09;100980.97;690929;28;24940;-63
2021/07/24 00:55:36;;;;;;;9.75;8.43;;;;;;;20.50;57.13;100972.72;689457;28;67869;-63
2021/07/24 00:55:59;;;;;;;9.80;8.38;;;;;;;20.49;57.08;100974.66;689166;28;49075;-63
2021/07/24 00:56:25;;;;;;;9.80;8.18;;;;;;;20.50;57.10;100972.72;689244;28;61502;-63
2021/07/24 00:56:49;;;;;;;10.43;8.40;;;;;;;20.49;57.00;100973.81;691918;28;962;-63
2021/07/24 00:57:15;;;;;;;10.63;8.70;;;;;;;20.49;57.03;100973.81;689797;28;37649;-63
2021/07/24 00:57:36;;;;;;;10.02;8.30;;;;;;;20.49;57.19;100973.81;689046;28;92283;-63
2021/07/24 00:57:57;;;;;;;9.88;8.60;;;;;;;20.49;57.00;100973.81;690541;28;22395;-63
2021/07/24 00:58:25;;;;;;;9.27;8.18;;;;;;;20.48;57.19;100975.72;690594;28;33002;-63
2021/07/24 00:58:47;;;;;;;9.60;7.97;;;;;;;20.47;57.14;100971.31;685718;28;161729;-63
2021/07/24 00:59:08;;;;;;;10.27;8.40;;;;;;;20.47;56.98;100976.81;690421;28;45799;-63
2021/07/24 00:59:30;;;;;;;9.63;8.40;;;;;;;20.47;57.12;100982.28;689178;28;46347;-64
2021/07/24 00:59:51;;;;;;;9.60;8.57;;;;;;;20.45;57.10;100976.19;690913;28;13182;-63
2021/07/24 01:00:13;;;;;;;9.75;8.02;;;;;;;20.44;57.14;100977.28;690125;28;21615;-63
2021/07/24 01:00:35;;;;;;;10.05;8.27;;;;;;;20.43;57.17;100972.03;690911;28;9470;-62
2021/07/24 01:00:58;;;;;;;10.43;8.32;;;;;;;20.42;57.25;100976.66;689080;28;69459;-62
2021/07/24 01:01:19;;;;;;;9.43;8.25;;;;;;;20.42;57.44;100982.16;687979;28;41252;-63
2021/07/24 01:01:43;;;;;;;9.63;8.35;;;;;;;20.41;57.20;100971.44;686585;28;46879;-63
2021/07/24 01:02:06;;;;;;;9.40;8.40;;;;;;;20.40;57.39;100972.50;686891;28;67471;-63
2021/07/24 01:02:27;;;;;;;9.25;8.32;;;;;;;20.40;57.21;100972.50;686217;28;68337;-63
2021/07/24 01:02:48;;;;;;;8.73;7.88;;;;;;;20.39;57.39;100977.16;685145;28;15547;-63
2021/07/24 01:03:09;;;;;;;8.93;8.02;;;;;;;20.40;57.46;100969.75;686235;28;21632;-63
2021/07/24 01:03:32;;;;;;;9.40;8.50;;;;;;;20.40;57.43;100976.06;685215;28;46289;-63
2021/07/24 01:03:54;;;;;;;8.95;8.05;;;;;;;20.41;57.21;100976.94;686213;28;46419;-63
2021/07/24 01:04:17;;;;;;;9.50;8.30;;;;;;;20.40;57.45;100976.06;678859;28;90202;-63
2021/07/24 01:04:40;;;;;;;9.77;8.30;;;;;;;20.40;57.36;100973.31;683386;28;22389;-63
2021/07/24 01:05:04;;;;;;;9.20;8.30;;;;;;;20.40;57.41;100975.25;680390;28;69314;-63
2021/07/24 01:05:26;;;;;;;10.73;8.52;;;;;;;20.41;57.34;100975.00;678738;29;92250;-63
2021/07/24 01:05:50;;;;;;;9.15;8.20;;;;;;;20.41;57.35;100976.94;681847;28;44382;-63
2021/07/24 01:06:12;;;;;;;9.35;8.38;;;;;;;20.43;57.36;100975.59;682338;28;92742;-63
2021/07/24 01:06:35;;;;;;;9.05;8.15;;;;;;;20.44;57.34;100973.69;685108;28;46258;-63
2021/07/24 01:06:56;;;;;;;9.03;8.03;;;;;;;20.43;57.34;100969.28;685104;28;67501;-63
2021/07/24 01:07:18;;;;;;;9.27;8.20;;;;;;;20.43;57.32;100970.13;688520;28;46415;-63
2021/07/24 01:07:40;;;;;;;9.50;7.93;;;;;;;20.44;57.31;100970.94;690730;28;22405;-63
2021/07/24 01:08:01;;;;;;;12.52;8.27;;;;;;;20.43;57.26;100972.03;688381;28;69595;-63
2021/07/24 01:08:24;;;;;;;12.73;8.43;;;;;;;20.45;57.36;100964.38;690583;28;46162;-64
2021/07/24 01:08:47;;;;;;;10.90;8.35;;;;;;;20.44;57.28;100974.53;692223;28;69463;-63
2021/07/24 01:09:10;;;;;;;8.88;7.90;;;;;;;20.46;57.26;100977.03;688699;28;67475;-62
2021/07/24 01:09:32;;;;;;;9.98;8.60;;;;;;;20.44;57.26;100974.53;689817;28;46538;-63
2021/07/24 01:09:56;;;;;;;9.68;8.70;;;;;;;20.45;57.48;100967.13;688975;28;31781;-63
2021/07/24 01:10:18;;;;;;;9.82;8.48;;;;;;;20.44;57.31;100973.69;684558;28;52646;-62
2021/07/24 01:10:39;;;;;;;10.13;8.88;;;;;;;20.44;57.17;100971.78;682974;28;40706;-63
2021/07/24 01:11:00;;;;;;;9.88;8.75;;;;;;;20.43;57.18;100972.03;684011;28;23432;-63
2021/07/24 01:11:22;;;;;;;9.25;8.35;;;;;;;20.42;57.30;100973.91;685542;28;45100;-62
2021/07/24 01:11:45;;;;;;;10.00;8.40;;;;;;;20.41;57.34;100980.50;687816;28;20945;-63
2021/07/24 01:12:07;;;;;;;8.73;7.90;;;;;;;20.40;57.27;100970.59;685754;28;93152;-63
2021/07/24 01:12:32;;;;;;;9.02;8.20;;;;;;;20.43;57.26;100974.78;683306;28;67482;-63
2021/07/24 01:12:54;;;;;;;9.82;8.50;;;;;;;20.40;57.20;100978.81;681984;28;90496;-63
2021/07/24 01:13:16;;;;;;;8.77;7.88;;;;;;;20.39;57.46;100971.69;683378;28;21527;-63
2021/07/24 01:13:39;;;;;;;9.10;8.18;;;;;;;20.39;57.45;100971.69;681649;28;70243;-63
2021/07/24 01:14:00;;;;;;;9.68;8.68;;;;;;;20.39;57.33;100973.56;684845;28;37681;-63
2021/07/24 01:14:22;;;;;;;9.68;8.68;;;;;;;20.39;57.42;100977.16;685546;28;3623;-62
2021/07/24 01:14:50;;;;;;;9.52;8.30;;;;;;;20.39;57.31;100970.81;684191;28;60422;-63
2021/07/24 01:15:12;;;;;;;9.52;8.52;;;;;;;20.40;57.39;100967.00;683978;28;21497;-62
2021/07/24 01:15:34;;;;;;;12.18;8.95;;;;;;;20.38;57.39;100971.91;682653;28;30673;-63
2021/07/24 01:15:56;;;;;;;13.52;9.02;;;;;;;20.38;57.38;100970.00;681939;28;44379;-63
2021/07/24 01:16:22;;;;;;;9.43;8.43;;;;;;;20.36;57.24;100969.41;680807;28;137389;-63
2021/07/24 01:16:46;;;;;;;11.23;8.77;;;;;;;20.34;57.40;100972.38;681355;28;69006;-63
2021/07/24 01:17:14;;;;;;;9.55;8.65;;;;;;;20.35;57.42;100967.72;679082;28;128548;-63
2021/07/24 01:17:36;;;;;;;10.70;8.57;;;;;;;20.34;57.35;100968.78;683102;28;46497;-63
2021/07/24 01:17:58;;;;;;;9.48;8.57;;;;;;;20.33;57.36;100972.63;684359;28;46472;-63
2021/07/24 01:18:23;;;;;;;10.00;9.00;;;;;;;20.30;57.47;100965.69;683401;28;69390;-63
2021/07/24 01:18:44;;;;;;;9.50;8.57;;;;;;;20.28;57.54;100964.25;686058;28;61167;-63
2021/07/24 01:19:11;;;;;;;10.77;8.35;;;;;;;20.29;57.60;100968.66;685178;28;122227;-63
2021/07/24 01:19:38;;;;;;;10.50;8.73;;;;;;;20.27;57.60;100968.91;685518;28;138007;-63
2021/07/24 01:20:03;;;;;;;10.23;8.40;;;;;;;20.25;57.69;100967.47;687607;28;23328;-63
2021/07/24 01:20:27;;;;;;;10.23;8.68;;;;;;;20.26;57.78;100966.41;678380;28;137757;-62
2021/07/24 01:20:52;;;;;;;9.15;8.25;;;;;;;20.26;57.86;100963.66;684356;28;46204;-63
2021/07/24 01:21:23;;;;;;;11.70;9.05;;;;;;;20.25;57.87;100962.84;682670;28;114998;-62
2021/07/24 01:21:45;;;;;;;9.25;8.35;;;;;;;20.26;57.70;100966.41;681800;28;156690;-63
2021/07/24 01:22:07;;;;;;;10.02;8.73;;;;;;;20.24;57.64;100963.88;687134;28;37621;-63
2021/07/24 01:22:28;;;;;;;11.48;8.68;;;;;;;20.24;57.95;100968.56;689207;28;45398;-63
2021/07/24 01:22:50;;;;;;;9.70;8.25;;;;;;;20.21;57.77;100964.34;689133;28;21486;-63
2021/07/24 01:23:14;;;;;;;9.50;8.50;;;;;;;20.23;57.92;100966.88;689691;28;30530;-63
2021/07/24 01:23:36;;;;;;;9.75;8.63;;;;;;;20.23;57.88;100962.22;688022;28;92276;-63
2021/07/24 01:23:58;;;;;;;11.18;8.68;;;;;;;20.24;57.90;100961.16;687867;28;44028;-63
2021/07/24 01:24:20;;;;;;;11.00;8.35;;;;;;;20.23;57.82;100962.22;687512;28;34265;-62
2021/07/24 01:24:43;;;;;;;11.48;8.90;;;;;;;20.23;57.80;100959.47;685653;28;31310;-63
2021/07/24 01:25:05;;;;;;;11.15;8.57;;;;;;;20.25;57.83;100960.09;683856;28;40537;-63
2021/07/24 01:25:26;;;;;;;9.65;8.63;;;;;;;20.26;57.94;100969.13;685953;28;46217;-63
2021/07/24 01:25:49;;;;;;;10.73;8.80;;;;;;;20.27;57.89;100963.41;686697;28;44350;-63
2021/07/24 01:26:12;;;;;;;10.68;8.68;;;;;;;20.28;57.70;100967.84;685053;28;69412;-63
2021/07/24 01:26:35;;;;;;;11.02;9.00;;;;;;;20.30;57.74;100964.88;683008;28;67481;-63
2021/07/24 01:26:56;;;;;;;9.75;8.30;;;;;;;20.31;57.68;100974.75;684016;28;45232;-63
2021/07/24 01:27:17;;;;;;;9.52;8.30;;;;;;;20.30;57.66;100965.69;682606;28;22399;-62
2021/07/24 01:27:41;;;;;;;11.23;8.77;;;;;;;20.31;57.74;100959.16;683095;28;46322;-63
2021/07/24 01:28:04;;;;;;;9.25;8.27;;;;;;;20.31;57.93;100964.63;686664;28;15273;-63
2021/07/24 01:28:29;;;;;;;10.93;8.30;;;;;;;20.32;57.43;100963.53;684443;28;69271;-63
2021/07/24 01:28:50;;;;;;;9.82;8.63;;;;;;;20.31;57.57;100966.50;682445;28;114017;-63
2021/07/24 01:29:14;;;;;;;10.02;9.07;;;;;;;20.32;57.67;100968.19;687245;28;23647;-63
2021/07/24 01:29:36;;;;;;;9.13;8.23;;;;;;;20.32;57.34;100965.47;683176;28;92363;-63
2021/07/24 01:29:58;;;;;;;9.93;8.55;;;;;;;20.30;57.46;100962.94;681678;28;69112;-63
2021/07/24 01:30:27;;;;;;;10.02;8.95;;;;;;;20.30;57.46;100962.94;680897;28;138752;-63
2021/07/24 01:30:49;;;;;;;11.23;9.32;;;;;;;20.27;57.54;100963.41;687152;28;22482;-63
2021/07/24 01:31:11;;;;;;;9.73;8.73;;;;;;;20.29;57.60;100964.00;686502;28;46440;-63
2021/07/24 01:31:37;;;;;;;10.35;8.50;;;;;;;20.28;57.68;100961.50;680631;28;137314;-63
2021/07/24 01:31:59;;;;;;;10.82;8.27;;;;;;;20.27;57.72;100960.69;684840;28;19383;-63
2021/07/24 01:32:24;;;;;;;9.80;8.80;;;;;;;20.26;57.75;100958.16;681488;28;60300;-63
2021/07/24 01:32:48;;;;;;;10.40;9.07;;;;;;;20.27;57.78;100963.41;682784;28;15780;-63
2021/07/24 01:33:11;;;;;;;11.45;9.50;;;;;;;20.27;57.73;100965.34;684972;28;23551;-62
2021/07/24 01:33:34;;;;;;;9.95;8.95;;;;;;;20.28;57.81;100961.50;686696;28;1273;-63
2021/07/24 01:33:57;;;;;;;9.65;8.68;;;;;;;20.29;57.68;100963.19;685494;28;14054;-63
2021/07/24 01:34:19;;;;;;;10.00;8.95;;;;;;;20.28;57.62;100961.50;686223;28;986;-64
2021/07/24 01:34:45;;;;;;;9.88;8.88;;;;;;;20.27;57.69;100970.81;684993;28;21669;-63
2021/07/24 01:35:08;;;;;;;12.60;8.85;;;;;;;20.27;57.84;100959.84;680445;28;141212;-63
2021/07/24 01:35:29;;;;;;;10.75;8.85;;;;;;;20.28;57.68;100958.75;681306;28;66151;-63
2021/07/24 01:35:51;;;;;;;10.98;9.05;;;;;;;20.28;57.70;100961.50;685286;28;1010;-63
2021/07/24 01:36:13;;;;;;;9.38;8.35;;;;;;;20.28;57.74;100959.63;683401;28;13390;-63
2021/07/24 01:36:37;;;;;;;11.25;8.98;;;;;;;20.28;57.65;100956.88;684381;28;21416;-63
2021/07/24 01:36:59;;;;;;;13.25;9.27;;;;;;;20.29;57.83;100960.44;681004;28;106154;-63
2021/07/24 01:37:22;;;;;;;10.15;9.02;;;;;;;20.29;57.68;100961.25;687061;28;1009;-62
2021/07/24 01:37:45;;;;;;;11.20;9.45;;;;;;;20.29;57.75;100963.19;684098;28;58549;-63
2021/07/24 01:38:07;;;;;;;11.50;9.40;;;;;;;20.29;57.74;100957.69;684155;28;21382;-63
2021/07/24 01:38:30;;;;;;;10.27;9.00;;;;;;;20.29;57.57;100957.69;684375;28;41816;-62
2021/07/24 01:38:58;;;;;;;12.48;8.85;;;;;;;20.30;57.75;100962.13;680552;28;137914;-62
2021/07/24 01:39:20;;;;;;;11.35;9.40;;;;;;;20.30;57.65;100964.88;685858;28;1033;-63
2021/07/24 01:39:42;;;;;;;11.00;9.43;;;;;;;20.31;57.61;100959.16;683812;28;963;-63
2021/07/24 01:40:06;;;;;;;9.93;8.93;;;;;;;20.30;57.67;100965.69;684583;28;1576;-63
2021/07/24 01:40:29;;;;;;;10.48;8.80;;;;;;;20.31;57.52;100961.03;685548;28;986;-63
2021/07/24 01:40:51;;;;;;;10.57;8.55;;;;;;;20.31;57.56;100955.53;686844;28;1220;-63
2021/07/24 01:41:14;;;;;;;10.77;9.05;;;;;;;20.32;57.46;100966.28;687131;28;23262;-63
2021/07/24 01:41:42;;;;;;;10.80;8.85;;;;;;;20.32;57.49;100966.28;686121;28;115073;-63
2021/07/24 01:42:05;;;;;;;10.50;9.13;;;;;;;20.32;57.55;100963.53;683863;28;138667;-63
2021/07/24 01:42:33;;;;;;;10.35;9.05;;;;;;;20.32;57.54;100958.06;686324;28;161671;-63
2021/07/24 01:42:57;;;;;;;10.00;9.00;;;;;;;20.32;57.61;100963.53;689614;28;69451;-63
2021/07/24 01:43:18;;;;;;;10.20;8.77;;;;;;;20.33;57.54;100953.41;687255;28;69466;-62
2021/07/24 01:43:40;;;;;;;11.00;9.02;;;;;;;20.31;57.46;100961.88;687589;28;14093;-63
2021/07/24 01:44:03;;;;;;;11.02;9.57;;;;;;;20.33;57.47;100964.38;685975;28;45389;-63
2021/07/24 01:44:25;;;;;;;10.18;8.80;;;;;;;20.33;57.41;100965.22;683285;28;68836;-62
2021/07/24 01:44:46;;;;;;;10.98;9.25;;;;;;;20.34;57.51;100966.03;686420;28;44388;-63
2021/07/24 01:45:09;;;;;;;10.00;8.80;;;;;;;20.35;57.26;100960.31;684065;28;45282;-63
2021/07/24 01:45:32;;;;;;;10.35;8.40;;;;;;;20.36;57.49;100958.44;685431;28;1327;-63
2021/07/24 01:45:53;;;;;;;12.75;9.18;;;;;;;20.35;57.28;100960.31;685067;28;69999;-63
2021/07/24 01:46:18;;;;;;;11.15;9.25;;;;;;;20.35;57.38;100951.28;683950;28;36343;-63
2021/07/24 01:46:53;;;;;;;11.73;8.63;;;;;;;20.35;57.33;100963.06;681315;28;138058;-63
2021/07/24 01:47:35;;;;;;;10.05;9.05;;;;;;;20.37;57.04;100959.25;685758;28;159928;-62
2021/07/24 01:47:58;;;;;;;9.73;8.48;;;;;;;20.36;57.27;100958.44;688413;28;15246;-63
2021/07/24 01:48:30;;;;;;;9.68;8.70;;;;;;;20.37;57.32;100960.09;689871;28;21501;-63